Time;durP1;ratioP1;P1;durP2;ratioP2;P2;SDS_P1;SDS_P2;PMS_P1;PMS_P2;Temp;Humidity;BMP_temperature;BMP_pressure;BME280_temperature;BME280_humidity;BME280_pressure;Samples;Min_cycle;Max_cycle;Signal;HPM_P1;HPM_P2
2023/09/16 00:02:25;;;;;;;32.35;30.42;;;;;;;20.45;100.00;101398.00;4987142;28;20089;-82
2023/09/16 00:04:52;;;;;;;34.38;32.28;;;;;;;20.49;100.00;101392.91;4977323;28;20120;-82
2023/09/16 00:07:21;;;;;;;34.63;32.53;;;;;;;20.68;100.00;101401.47;4983572;28;20057;-82
2023/09/16 00:09:56;;;;;;;34.10;31.80;;;;;;;21.28;100.00;101397.59;4990605;28;20055;-82
2023/09/16 00:12:24;;;;;;;34.67;32.58;;;;;;;20.93;100.00;101400.88;4985589;28;20185;-82
2023/09/16 00:14:50;;;;;;;35.80;33.08;;;;;;;20.45;100.00;101416.06;4988302;28;20415;-82
2023/09/16 00:17:18;;;;;;;37.15;34.85;;;;;;;20.46;100.00;101410.44;4989115;28;20053;-82
2023/09/16 00:19:45;;;;;;;34.53;32.42;;;;;;;20.75;100.00;101415.56;4987152;28;20409;-82
2023/09/16 00:22:13;;;;;;;33.60;31.50;;;;;;;21.11;100.00;101423.94;4990934;28;20518;-81
2023/09/16 00:24:42;;;;;;;34.58;31.98;;;;;;;20.45;100.00;101429.56;4978093;28;20046;-82
2023/09/16 00:27:08;;;;;;;31.02;29.02;;;;;;;20.30;100.00;101432.91;4988791;28;20462;-80
2023/09/16 00:29:35;;;;;;;30.52;28.73;;;;;;;20.76;100.00;101441.50;4987268;28;20054;-81
2023/09/16 00:32:08;;;;;;;33.47;31.35;;;;;;;20.36;100.00;101440.81;4980017;28;20050;-82
2023/09/16 00:34:37;;;;;;;;;;;;;;;20.12;100.00;101445.69;4990390;28;20077;-82
2023/09/16 00:37:07;;;;;;;36.80;33.85;;;;;;;20.25;100.00;101447.16;4986839;28;20322;-82
2023/09/16 00:39:36;;;;;;;34.00;31.80;;;;;;;20.18;100.00;101448.41;4980363;28;20448;-82
2023/09/16 00:42:05;;;;;;;38.65;35.83;;;;;;;20.08;100.00;101443.72;4986920;28;20058;-82
2023/09/16 00:44:32;;;;;;;36.75;34.35;;;;;;;20.19;100.00;101448.19;4989945;28;20058;-82
2023/09/16 00:46:59;;;;;;;38.78;36.17;;;;;;;20.19;100.00;101436.56;4985089;28;20516;-75
2023/09/16 00:49:35;;;;;;;35.53;33.10;;;;;;;20.09;100.00;101438.09;4984596;28;20439;-75
2023/09/16 00:52:07;;;;;;;38.03;35.47;;;;;;;20.05;100.00;101445.03;4992041;28;20046;-82
2023/09/16 00:54:35;;;;;;;36.30;33.88;;;;;;;20.29;100.00;101439.38;4983586;28;20055;-82
2023/09/16 00:57:03;;;;;;;34.97;32.67;;;;;;;20.04;100.00;101438.03;4987351;28;20057;-81
2023/09/16 00:59:35;;;;;;;37.15;34.65;;;;;;;20.24;100.00;101445.56;4984145;28;20042;-82
2023/09/16 01:02:09;;;;;;;38.13;35.63;;;;;;;20.11;100.00;101440.53;4983980;28;20051;-81
2023/09/16 01:04:39;;;;;;;40.05;37.45;;;;;;;20.19;100.00;101444.66;4989204;28;20054;-74
2023/09/16 01:07:07;;;;;;;41.97;39.17;;;;;;;20.01;100.00;101445.81;4978233;28;20524;-74
2023/09/16 01:09:34;;;;;;;40.45;37.75;;;;;;;20.02;100.00;101450.13;4989389;28;20097;-74
2023/09/16 01:12:01;;;;;;;39.55;36.95;;;;;;;19.97;100.00;101456.28;4992499;28;20050;-75
2023/09/16 01:14:28;;;;;;;46.20;42.92;;;;;;;20.02;100.00;101455.50;4989859;28;20422;-74
2023/09/16 01:17:01;;;;;;;41.45;38.65;;;;;;;19.86;100.00;101455.31;4988360;28;20063;-75
2023/09/16 01:19:37;;;;;;;40.70;37.80;;;;;;;19.96;100.00;101461.91;4989554;28;20050;-82
2023/09/16 01:22:07;;;;;;;35.47;32.33;;;;;;;19.95;100.00;101457.59;4992437;28;20050;-81
2023/09/16 01:24:34;;;;;;;39.28;36.60;;;;;;;19.92;100.00;101458.91;4991770;28;20050;-74
2023/09/16 01:27:03;;;;;;;42.47;39.78;;;;;;;19.97;100.00;101461.69;4980016;28;20440;-74
2023/09/16 01:29:31;;;;;;;41.05;38.35;;;;;;;20.03;100.00;101462.53;4992538;28;20061;-74
2023/09/16 01:32:03;;;;;;;44.47;41.63;;;;;;;19.97;100.00;101472.47;4984055;28;20054;-74
2023/09/16 01:34:40;;;;;;;39.15;36.60;;;;;;;19.87;100.00;101467.72;4990992;28;20049;-75
2023/09/16 01:37:11;;;;;;;40.05;37.35;;;;;;;19.86;100.00;101473.38;4990917;28;20057;-75
2023/09/16 01:39:40;;;;;;;42.67;39.88;;;;;;;19.94;100.00;101478.34;4985691;28;20052;-74
2023/09/16 01:42:10;;;;;;;43.85;41.05;;;;;;;19.87;100.00;101483.09;4988118;28;20051;-74
2023/09/16 01:44:37;;;;;;;51.63;48.40;;;;;;;19.98;100.00;101490.25;4980268;28;20047;-75
2023/09/16 01:47:10;;;;;;;49.25;46.05;;;;;;;19.88;100.00;101490.13;4983715;28;20239;-74
2023/09/16 01:49:37;;;;;;;44.55;41.63;;;;;;;20.01;100.00;101488.94;4980124;28;20512;-81
2023/09/16 01:52:04;;;;;;;57.55;54.05;;;;;;;19.85;100.00;101490.63;4978414;28;20109;-82
2023/09/16 01:54:31;;;;;;;45.33;42.42;;;;;;;20.03;100.00;101489.50;4979894;28;20053;-81
2023/09/16 01:56:58;;;;;;;45.22;42.33;;;;;;;20.14;100.00;101500.16;4979277;28;20061;-81
2023/09/16 01:59:26;;;;;;;46.33;43.33;;;;;;;19.97;100.00;101501.28;4987514;28;20054;-82
2023/09/16 02:01:53;;;;;;;50.25;47.15;;;;;;;20.06;100.00;101491.69;4988852;28;20113;-82
2023/09/16 02:04:20;;;;;;;49.78;46.63;;;;;;;20.04;100.00;101496.53;4987212;28;20049;-82
2023/09/16 02:06:47;;;;;;;44.65;41.53;;;;;;;19.98;100.00;101497.53;4986521;28;20528;-82
2023/09/16 02:09:14;;;;;;;40.25;37.45;;;;;;;19.50;100.00;101501.66;4975001;28;20058;-82
2023/09/16 02:11:41;;;;;;;45.47;42.28;;;;;;;19.17;100.00;101506.00;4987335;28;20050;-82
2023/09/16 02:14:12;;;;;;;48.53;45.13;;;;;;;19.54;100.00;101514.38;4975235;28;20051;-74
2023/09/16 02:16:48;;;;;;;44.10;40.90;;;;;;;19.57;100.00;101511.19;4980644;28;20057;-82
2023/09/16 02:19:15;;;;;;;43.28;40.10;;;;;;;19.81;100.00;101503.75;4978261;28;20872;-81
2023/09/16 02:21:41;;;;;;;46.42;43.03;;;;;;;19.86;100.00;101513.81;4986770;28;20591;-82
2023/09/16 02:24:08;;;;;;;48.85;45.40;;;;;;;20.00;100.00;101506.16;4980740;28;20054;-82
2023/09/16 02:26:35;;;;;;;46.25;43.00;;;;;;;19.33;100.00;101510.56;4987228;28;20056;-82
2023/09/16 02:29:02;;;;;;;40.70;37.60;;;;;;;19.62;100.00;101513.16;4983049;28;20105;-82
2023/09/16 02:31:29;;;;;;;41.20;37.97;;;;;;;19.19;100.00;101518.16;4987683;28;20050;-81
2023/09/16 02:33:58;;;;;;;41.92;38.25;;;;;;;19.23;100.00;101526.56;4980716;28;20049;-81
2023/09/16 02:36:30;;;;;;;42.05;38.65;;;;;;;19.32;100.00;101527.78;4980178;28;20286;-81
2023/09/16 02:38:59;;;;;;;41.97;38.40;;;;;;;19.25;100.00;101526.34;4982966;28;20050;-81
2023/09/16 02:41:26;;;;;;;40.88;37.58;;;;;;;19.64;100.00;101532.59;4983681;28;20055;-81
2023/09/16 02:43:55;;;;;;;37.33;34.33;;;;;;;19.72;100.00;101534.09;4989510;28;20049;-81
2023/09/16 02:46:22;;;;;;;36.55;33.55;;;;;;;19.90;100.00;101531.13;4989709;28;20055;-81
2023/09/16 02:48:49;;;;;;;38.05;34.85;;;;;;;19.95;100.00;101536.59;4982704;28;20050;-81
2023/09/16 02:51:17;;;;;;;38.67;35.58;;;;;;;19.85;100.00;101531.88;4973028;28;20051;-81
2023/09/16 02:53:54;;;;;;;40.67;37.38;;;;;;;19.80;100.00;101534.50;4988019;28;20042;-81
2023/09/16 02:56:21;;;;;;;40.00;36.80;;;;;;;19.88;100.00;101535.97;4985274;28;20082;-81
2023/09/16 02:58:48;;;;;;;37.10;34.05;;;;;;;19.71;100.00;101535.16;4984777;28;20058;-74
2023/09/16 03:01:15;;;;;;;36.00;33.00;;;;;;;19.57;100.00;101532.75;4977456;28;20077;-75
2023/09/16 03:03:43;;;;;;;46.33;42.72;;;;;;;19.71;100.00;101543.25;4973822;28;20443;-74
2023/09/16 03:06:10;;;;;;;46.10;42.50;;;;;;;19.93;100.00;101535.19;4988858;28;20488;-74
2023/09/16 03:08:38;;;;;;;44.75;41.15;;;;;;;19.92;100.00;101529.00;4987632;28;20042;-74
2023/09/16 03:11:06;;;;;;;46.80;43.03;;;;;;;19.98;100.00;101528.00;4990319;28;20062;-81
2023/09/16 03:13:33;;;;;;;42.25;38.35;;;;;;;19.85;100.00;101521.09;4987262;28;20046;-81
2023/09/16 03:16:17;;;;;;;53.55;49.55;;;;;;;19.83;100.00;101519.69;4990499;28;20046;-81
2023/09/16 03:18:45;;;;;;;48.75;44.95;;;;;;;19.70;100.00;101512.78;4990889;28;20092;-81
2023/09/16 03:21:13;;;;;;;54.65;50.45;;;;;;;19.56;100.00;101504.19;4990819;28;20050;-81
2023/09/16 03:23:41;;;;;;;56.92;52.42;;;;;;;19.48;100.00;101503.78;4985327;28;20062;-81
2023/09/16 03:26:09;;;;;;;53.83;49.72;;;;;;;19.48;100.00;101501.91;4990956;28;20452;-81
2023/09/16 03:28:38;;;;;;;49.45;45.65;;;;;;;19.37;100.00;101508.22;4983550;28;20054;-81
2023/09/16 03:31:05;;;;;;;56.30;51.75;;;;;;;19.34;100.00;101506.81;4992296;28;20054;-81
2023/09/16 03:33:32;;;;;;;47.40;43.60;;;;;;;19.26;100.00;101509.09;4996796;28;20057;-81
2023/09/16 03:35:59;;;;;;;45.35;41.75;;;;;;;19.19;100.00;101511.97;4995859;28;20137;-81
2023/09/16 03:38:29;;;;;;;48.55;42.47;;;;;;;18.90;100.00;101516.56;4985517;28;20140;-81
2023/09/16 03:40:57;;;;;;;43.13;39.63;;;;;;;19.23;100.00;101516.59;4989539;28;20050;-81
2023/09/16 03:43:24;;;;;;;57.53;53.33;;;;;;;19.28;100.00;101509.69;4978400;28;20043;-81
2023/09/16 03:45:51;;;;;;;43.83;40.38;;;;;;;19.56;100.00;101508.75;4985040;28;20046;-81
2023/09/16 03:48:18;;;;;;;37.33;33.85;;;;;;;19.58;100.00;101503.97;4980886;28;20298;-81
2023/09/16 03:50:46;;;;;;;38.55;35.05;;;;;;;20.00;100.00;101498.91;4988806;28;20042;-81
2023/09/16 03:53:13;;;;;;;38.15;35.00;;;;;;;19.73;100.00;101497.97;4988774;28;20543;-80
2023/09/16 03:55:40;;;;;;;39.08;35.78;;;;;;;19.72;100.00;101496.34;4977918;28;20054;-81
2023/09/16 03:58:10;;;;;;;42.28;38.95;;;;;;;19.78;100.00;101498.88;4985376;28;20057;-81
2023/09/16 04:00:38;;;;;;;30.30;27.60;;;;;;;19.92;100.00;101499.34;4986730;28;20126;-81
2023/09/16 04:03:06;;;;;;;33.67;30.67;;;;;;;20.20;100.00;101500.22;4983885;28;20054;-75
2023/09/16 04:05:33;;;;;;;33.03;30.33;;;;;;;20.36;100.00;101497.47;4979806;28;20503;-75
2023/09/16 04:08:00;;;;;;;34.47;31.42;;;;;;;20.31;100.00;101512.78;4983845;28;20509;-75
2023/09/16 04:10:31;;;;;;;32.85;30.15;;;;;;;20.13;100.00;101511.22;4985686;28;20058;-74
2023/09/16 04:13:19;;;;;;;33.08;30.48;;;;;;;19.93;100.00;101529.81;4982913;28;20527;-75
2023/09/16 04:16:05;;;;;;;33.20;30.52;;;;;;;19.80;100.00;101542.56;4969481;28;20093;-74
2023/09/16 04:18:32;;;;;;;31.23;28.73;;;;;;;19.85;100.00;101541.84;4983718;28;20444;-75
2023/09/16 04:20:59;;;;;;;30.85;28.23;;;;;;;19.83;100.00;101543.97;4983915;28;20508;-74
2023/09/16 04:23:32;;;;;;;30.17;27.88;;;;;;;19.92;100.00;101547.88;4983340;28;20050;-74
2023/09/16 04:26:02;;;;;;;32.17;29.67;;;;;;;19.86;100.00;101549.66;4995005;28;20050;-74
2023/09/16 04:28:30;;;;;;;31.45;29.08;;;;;;;19.78;100.00;101543.88;4984240;28;20484;-75
2023/09/16 04:30:59;;;;;;;30.92;28.65;;;;;;;21.39;100.00;101561.44;4980030;28;20505;-75
2023/09/16 04:33:25;;;;;;;29.55;27.35;;;;;;;21.68;100.00;101553.00;4993386;28;20054;-82
2023/09/16 04:35:52;;;;;;;29.40;27.05;;;;;;;21.85;100.00;101545.56;4995875;28;20041;-81
2023/09/16 04:38:20;;;;;;;28.45;26.15;;;;;;;22.08;100.00;101547.00;4992998;28;20054;-82
2023/09/16 04:40:47;;;;;;;27.60;25.30;;;;;;;22.64;100.00;101541.06;4991211;28;20054;-82
2023/09/16 04:43:14;;;;;;;28.40;26.02;;;;;;;21.50;100.00;101556.94;4999278;28;20073;-81
2023/09/16 04:45:44;;;;;;;27.63;25.42;;;;;;;22.39;100.00;101552.59;4986538;28;20077;-82
2023/09/16 04:48:13;;;;;;;27.27;25.08;;;;;;;23.03;100.00;101548.75;4985595;28;20053;-82
2023/09/16 04:50:41;;;;;;;26.02;23.92;;;;;;;21.48;100.00;101562.59;4983942;28;20046;-82
2023/09/16 04:53:08;;;;;;;27.05;24.90;;;;;;;21.93;100.00;101557.75;4980759;28;20050;-83
2023/09/16 04:55:35;;;;;;;27.42;25.23;;;;;;;21.90;100.00;101563.69;4986084;28;20496;-83
2023/09/16 04:58:02;;;;;;;31.00;28.58;;;;;;;21.27;100.00;101567.00;4986523;28;20134;-82
2023/09/16 05:00:33;;;;;;;28.45;25.92;;;;;;;22.05;100.00;101560.25;4984707;28;20473;-82
2023/09/16 05:03:06;;;;;;;28.30;26.10;;;;;;;21.59;100.00;101565.38;4982380;28;20129;-74
2023/09/16 05:05:33;;;;;;;29.40;27.13;;;;;;;21.49;100.00;101563.41;4985308;28;20043;-82
2023/09/16 05:08:40;;;;;;;25.92;23.98;;;;;;;22.37;100.00;101552.88;4982148;28;20058;-82
2023/09/16 05:11:07;;;;;;;25.95;24.05;;;;;;;22.43;100.00;101555.59;4989755;28;21747;-75
2023/09/16 05:13:38;;;;;;;27.67;25.58;;;;;;;21.93;100.00;101561.25;4989279;28;20050;-75
2023/09/16 05:16:08;;;;;;;28.40;26.20;;;;;;;22.03;100.00;101565.09;4988732;28;20050;-75
2023/09/16 05:18:53;;;;;;;27.27;25.27;;;;;;;21.70;100.00;101573.31;4991592;28;20136;-74
2023/09/16 05:21:20;;;;;;;24.48;22.67;;;;;;;21.69;100.00;101576.25;4992800;28;20538;-75
2023/09/16 05:23:47;;;;;;;25.35;23.55;;;;;;;21.30;100.00;101576.44;4993000;28;20049;-75
2023/09/16 05:26:14;;;;;;;28.33;26.13;;;;;;;21.56;100.00;101584.81;4991760;28;20104;-74
2023/09/16 05:28:47;;;;;;;27.13;25.02;;;;;;;22.86;100.00;101578.75;4987657;28;20053;-74
2023/09/16 05:31:14;;;;;;;25.65;23.85;;;;;;;22.76;100.00;101576.00;4984735;28;20050;-74
2023/09/16 05:33:41;;;;;;;28.55;26.42;;;;;;;21.42;100.00;101573.59;4991130;28;20061;-74
2023/09/16 05:36:09;;;;;;;29.02;26.48;;;;;;;21.06;100.00;101589.47;4990086;28;20475;-75
2023/09/16 05:38:36;;;;;;;30.83;28.58;;;;;;;20.33;100.00;101588.84;4990628;28;20050;-82
2023/09/16 05:41:03;;;;;;;31.15;28.75;;;;;;;19.83;100.00;101596.00;4991443;28;20046;-82
2023/09/16 05:43:30;;;;;;;31.77;29.48;;;;;;;20.24;100.00;101601.13;4986078;28;20054;-81
2023/09/16 05:46:05;;;;;;;30.60;28.20;;;;;;;19.94;100.00;101607.75;4990665;28;20046;-74
2023/09/16 05:48:32;;;;;;;29.90;27.67;;;;;;;19.67;100.00;101611.09;4984548;28;20444;-74
2023/09/16 05:51:02;;;;;;;29.40;27.20;;;;;;;19.90;100.00;101617.38;4987506;28;20046;-75
2023/09/16 05:53:32;;;;;;;27.67;25.58;;;;;;;19.81;100.00;101616.16;4984844;28;20050;-75
2023/09/16 05:56:02;;;;;;;28.38;26.30;;;;;;;19.94;100.00;101613.16;4980579;28;20042;-82
2023/09/16 05:58:28;;;;;;;31.70;29.33;;;;;;;20.08;100.00;101616.31;4986775;28;20046;-82
2023/09/16 06:00:56;;;;;;;32.60;30.20;;;;;;;20.01;100.00;101619.16;4985444;28;20064;-81
2023/09/16 06:03:23;;;;;;;55.80;31.33;;;;;;;20.12;100.00;101617.44;4986139;28;20447;-74
2023/09/16 06:05:56;;;;;;;32.03;29.33;;;;;;;20.09;100.00;101620.63;4987600;28;20049;-74
2023/09/16 06:08:24;;;;;;;31.67;29.27;;;;;;;20.20;100.00;101618.91;4984167;28;20054;-74
2023/09/16 06:10:52;;;;;;;29.98;27.73;;;;;;;20.15;100.00;101627.72;4986149;28;20535;-75
2023/09/16 06:13:19;;;;;;;29.90;27.60;;;;;;;20.14;100.00;101626.09;4984184;28;20053;-75
2023/09/16 06:15:46;;;;;;;32.40;30.10;;;;;;;20.28;100.00;101630.06;4982830;28;20459;-75
2023/09/16 06:18:13;;;;;;;32.60;30.10;;;;;;;20.06;100.00;101634.59;4984831;28;20476;-74
2023/09/16 06:20:40;;;;;;;34.42;31.73;;;;;;;20.26;100.00;101634.09;4980447;28;20061;-75
2023/09/16 06:23:07;;;;;;;30.80;28.05;;;;;;;20.30;100.00;101635.22;4982489;28;20094;-75
2023/09/16 06:25:35;;;;;;;29.92;27.42;;;;;;;20.25;100.00;101635.97;4983297;28;20039;-82
2023/09/16 06:28:05;;;;;;;32.80;30.05;;;;;;;20.21;100.00;101628.59;4980944;28;20062;-82
2023/09/16 06:30:32;;;;;;;32.15;29.55;;;;;;;20.33;100.00;101634.72;4980756;28;20126;-82
2023/09/16 06:32:59;;;;;;;32.13;29.63;;;;;;;20.38;100.00;101642.88;4987610;28;20057;-82
2023/09/16 06:35:26;;;;;;;31.90;29.10;;;;;;;20.44;100.00;101649.16;4982717;28;20065;-82
2023/09/16 06:37:53;;;;;;;31.08;28.52;;;;;;;20.33;100.00;101649.03;4984642;28;20105;-82
2023/09/16 06:40:20;;;;;;;30.17;27.70;;;;;;;20.33;100.00;101661.69;4978309;28;20124;-82
2023/09/16 06:42:47;;;;;;;31.58;29.08;;;;;;;20.41;100.00;101657.75;4981626;28;20054;-75
2023/09/16 06:45:15;;;;;;;31.33;28.58;;;;;;;20.52;100.00;101662.28;4975340;28;20046;-75
2023/09/16 06:47:42;;;;;;;29.92;27.63;;;;;;;20.69;100.00;101668.41;4979810;28;20073;-75
2023/09/16 06:50:09;;;;;;;28.67;26.48;;;;;;;20.74;100.00;101663.09;4978962;28;20045;-75
2023/09/16 06:52:37;;;;;;;29.30;27.00;;;;;;;20.66;100.00;101668.09;4978796;28;20061;-75
2023/09/16 06:55:05;;;;;;;30.38;27.98;;;;;;;20.95;100.00;101671.44;4982190;28;20042;-75
2023/09/16 06:57:32;;;;;;;29.17;26.88;;;;;;;20.85;100.00;101666.75;4980340;28;20089;-74
2023/09/16 06:59:59;;;;;;;29.60;27.27;;;;;;;20.65;100.00;101679.97;4987001;28;20058;-75
2023/09/16 07:02:27;;;;;;;29.40;27.20;;;;;;;20.75;100.00;101672.81;4987378;28;20057;-74
2023/09/16 07:04:55;;;;;;;31.00;28.70;;;;;;;20.78;100.00;101677.72;4987863;28;20424;-74
2023/09/16 07:07:23;;;;;;;30.00;27.80;;;;;;;21.57;100.00;101675.63;4986546;28;20112;-76
2023/09/16 07:09:54;;;;;;;30.65;27.83;;;;;;;21.31;100.00;101672.66;4987052;28;20046;-75
2023/09/16 07:12:21;;;;;;;32.90;30.50;;;;;;;21.75;100.00;101686.06;4986560;28;20078;-75
2023/09/16 07:14:48;;;;;;;29.35;27.15;;;;;;;21.26;100.00;101689.63;4986598;28;20051;-74
2023/09/16 07:17:15;;;;;;;30.80;28.40;;;;;;;21.21;100.00;101686.03;4987422;28;20479;-74
2023/09/16 07:19:43;;;;;;;30.65;28.25;;;;;;;21.17;100.00;101684.91;4982950;28;20043;-83
2023/09/16 07:22:10;;;;;;;31.13;28.73;;;;;;;21.38;100.00;101691.38;4985959;28;20047;-83
2023/09/16 07:24:37;;;;;;;31.80;29.10;;;;;;;21.49;100.00;101688.53;4987362;28;20046;-82
2023/09/16 07:27:07;;;;;;;29.98;27.55;;;;;;;21.42;100.00;101690.66;4984993;28;20057;-83
2023/09/16 07:29:37;;;;;;;29.92;27.63;;;;;;;21.58;100.00;101702.41;4983767;28;20047;-82
2023/09/16 07:32:07;;;;;;;30.38;27.77;;;;;;;21.54;100.00;101692.34;4985993;28;20050;-75
2023/09/16 07:34:34;;;;;;;28.63;26.42;;;;;;;21.29;100.00;101701.81;4979648;28;20444;-74
2023/09/16 07:37:03;;;;;;;31.60;29.30;;;;;;;21.51;100.00;101701.78;4974053;28;20051;-82
2023/09/16 07:39:30;;;;;;;29.38;27.08;;;;;;;21.63;100.00;101709.75;4982488;28;20147;-83
2023/09/16 07:41:58;;;;;;;28.33;26.13;;;;;;;21.46;100.00;101707.97;4980783;28;20073;-82
2023/09/16 07:44:26;;;;;;;37.78;34.53;;;;;;;21.62;100.00;101706.22;4980434;28;20062;-83
2023/09/16 07:46:53;;;;;;;42.15;38.38;;;;;;;21.68;100.00;101707.09;4977617;28;20106;-83
2023/09/16 07:49:20;;;;;;;37.05;33.65;;;;;;;21.71;100.00;101707.38;4978410;28;20049;-83
2023/09/16 07:51:46;;;;;;;43.20;39.45;;;;;;;21.90;100.00;101697.00;4977371;28;20054;-82
2023/09/16 07:54:15;;;;;;;45.90;41.10;;;;;;;21.65;100.00;101700.31;4980283;28;20441;-83
2023/09/16 07:56:42;;;;;;;49.28;44.20;;;;;;;21.66;100.00;101693.00;4971609;28;20569;-82
2023/09/16 07:59:09;;;;;;;49.03;43.95;;;;;;;21.79;100.00;101697.19;4982802;28;20492;-82
2023/09/16 08:01:36;;;;;;;59.35;53.55;;;;;;;21.73;100.00;101702.56;4981889;28;20058;-83
2023/09/16 08:04:03;;;;;;;54.70;49.10;;;;;;;21.72;100.00;101695.53;4981385;28;20153;-83
2023/09/16 08:06:30;;;;;;;58.58;52.88;;;;;;;22.07;100.00;101691.47;4985248;28;20042;-76
2023/09/16 08:08:58;;;;;;;54.80;49.35;;;;;;;21.88;100.00;101691.06;4989335;28;20052;-76
2023/09/16 08:11:26;;;;;;;49.22;44.15;;;;;;;21.93;100.00;101691.06;4990119;28;20113;-75
2023/09/16 08:13:53;;;;;;;48.78;44.25;;;;;;;22.22;100.00;101690.78;4988904;28;20046;-76
2023/09/16 08:16:20;;;;;;;47.92;43.55;;;;;;;21.88;100.00;101690.25;4989323;28;20050;-76
2023/09/16 08:18:47;;;;;;;52.28;47.28;;;;;;;21.66;100.00;101687.59;4988962;28;20653;-75
2023/09/16 08:21:14;;;;;;;57.70;53.30;;;;;;;22.33;100.00;101694.34;4989046;28;20504;-76
2023/09/16 08:23:41;;;;;;;58.22;53.53;;;;;;;21.89;100.00;101695.38;4986617;28;20043;-76
2023/09/16 08:26:08;;;;;;;53.65;49.53;;;;;;;22.07;100.00;101690.66;4991165;28;20132;-76
2023/09/16 08:28:39;;;;;;;61.15;56.35;;;;;;;22.07;100.00;101693.34;4987909;28;20046;-76
2023/09/16 08:31:06;;;;;;;61.50;56.60;;;;;;;22.25;100.00;101692.16;4986999;28;20046;-76
2023/09/16 08:33:32;;;;;;;60.78;55.80;;;;;;;22.21;100.00;101697.28;4988620;28;20046;-76
2023/09/16 08:35:59;;;;;;;65.20;59.70;;;;;;;22.09;100.00;101704.75;4992121;28;20412;-76
2023/09/16 08:38:26;;;;;;;63.78;58.05;;;;;;;21.77;100.00;101693.94;4989007;28;20443;-76
2023/09/16 08:41:02;;;;;;;64.03;58.53;;;;;;;22.16;100.00;101706.16;4987801;28;20055;-76
2023/09/16 08:43:34;;;;;;;62.40;56.92;;;;;;;22.53;100.00;101701.81;4988704;28;20092;-76
2023/09/16 08:46:09;;;;;;;66.03;60.47;;;;;;;22.54;100.00;101703.41;4991814;28;20046;-76
2023/09/16 08:48:38;;;;;;;69.45;63.15;;;;;;;22.45;100.00;101694.16;4986667;28;20039;-76
2023/09/16 08:51:09;;;;;;;68.40;62.65;;;;;;;22.89;100.00;101696.56;4989596;28;20496;-76
2023/09/16 08:53:39;;;;;;;64.75;59.67;;;;;;;23.13;100.00;101686.13;4986852;28;20049;-76
2023/09/16 08:56:06;;;;;;;69.75;62.95;;;;;;;22.81;100.00;101697.88;4990363;28;20042;-83
2023/09/16 08:58:36;;;;;;;66.18;60.17;;;;;;;22.64;100.00;101692.66;4984231;28;20043;-83
2023/09/16 09:01:05;;;;;;;65.60;59.50;;;;;;;22.82;100.00;101694.09;4988435;28;20447;-83
2023/09/16 09:03:33;;;;;;;71.13;64.82;;;;;;;23.04;100.00;101699.34;4985110;28;20057;-84
2023/09/16 09:06:00;;;;;;;61.80;56.40;;;;;;;22.90;100.00;101704.41;4986455;28;20428;-83
2023/09/16 09:08:28;;;;;;;74.00;67.70;;;;;;;22.89;100.00;101700.09;4986081;28;20054;-83
2023/09/16 09:10:55;;;;;;;68.57;62.78;;;;;;;22.72;100.00;101710.28;4988522;28;20516;-83
2023/09/16 09:13:24;;;;;;;68.80;62.97;;;;;;;22.61;100.00;101701.31;4987658;28;20046;-82
2023/09/16 09:15:56;;;;;;;71.80;65.70;;;;;;;22.76;100.00;101695.16;4991508;28;20057;-76
2023/09/16 09:18:25;;;;;;;69.78;63.58;;;;;;;22.68;100.00;101704.59;4986842;28;20516;-76
2023/09/16 09:20:53;;;;;;;63.65;57.75;;;;;;;23.03;100.00;101706.69;4986825;28;20052;-76
2023/09/16 09:23:19;;;;;;;70.75;64.85;;;;;;;23.07;100.00;101699.63;4986398;28;20050;-76
2023/09/16 09:25:46;;;;;;;71.10;65.20;;;;;;;22.81;100.00;101692.44;4987495;28;20046;-76
2023/09/16 09:28:14;;;;;;;72.38;66.28;;;;;;;22.94;100.00;101693.88;4983161;28;20468;-75
2023/09/16 09:30:42;;;;;;;70.57;64.38;;;;;;;23.02;100.00;101688.78;4979346;28;20046;-76
2023/09/16 09:33:14;;;;;;;63.50;58.45;;;;;;;23.56;100.00;101690.25;4979986;28;20496;-83
2023/09/16 09:35:43;;;;;;;;;;;;;;;23.66;100.00;101684.88;4980746;28;20043;-83
2023/09/16 09:38:09;;;;;;;63.50;58.40;;;;;;;23.82;100.00;101684.91;4984396;28;20398;-76
2023/09/16 09:40:36;;;;;;;62.35;57.25;;;;;;;23.62;100.00;101681.03;4987316;28;20062;-76
2023/09/16 09:43:07;;;;;;;55.75;51.65;;;;;;;23.93;100.00;101681.91;4987226;28;20058;-76
2023/09/16 09:45:37;;;;;;;59.70;54.53;;;;;;;24.16;100.00;101680.50;4986969;28;20089;-76
2023/09/16 09:48:05;;;;;;;66.40;59.90;;;;;;;24.35;100.00;101677.22;4978502;28;20440;-76
2023/09/16 09:50:33;;;;;;;60.35;55.33;;;;;;;24.45;100.00;101679.94;4981863;28;20050;-76
2023/09/16 09:53:02;;;;;;;70.30;64.00;;;;;;;24.67;100.00;101671.44;4977210;28;20540;-84
2023/09/16 09:55:30;;;;;;;74.82;67.97;;;;;;;24.80;100.00;101679.00;4987294;28;20049;-76
2023/09/16 09:57:57;;;;;;;69.80;63.33;;;;;;;24.94;100.00;101673.78;4982500;28;20050;-76
2023/09/16 10:00:26;;;;;;;63.33;57.67;;;;;;;24.98;100.00;101668.59;4982653;28;20073;-76
2023/09/16 10:02:54;;;;;;;56.47;52.28;;;;;;;25.32;100.00;101664.06;4981833;28;20054;-76
2023/09/16 10:05:22;;;;;;;23.48;21.75;;;;;;;24.96;100.00;101671.56;4979201;28;20463;-76
2023/09/16 10:07:51;;;;;;;23.33;21.50;;;;;;;25.30;100.00;101662.75;4978216;28;20059;-76
2023/09/16 10:10:21;;;;;;;23.95;21.98;;;;;;;25.51;100.00;101664.22;4981796;28;20474;-76
2023/09/16 10:12:49;;;;;;;25.40;23.25;;;;;;;25.66;100.00;101663.28;4979649;28;20054;-76
2023/09/16 10:15:16;;;;;;;23.33;21.63;;;;;;;25.75;100.00;101666.19;4980750;28;20420;-76
2023/09/16 10:17:44;;;;;;;24.92;22.92;;;;;;;25.64;100.00;101656.50;4989532;28;20050;-76
2023/09/16 10:20:13;;;;;;;22.80;21.10;;;;;;;26.30;100.00;101657.81;4984683;28;20043;-77
2023/09/16 10:22:41;;;;;;;24.13;22.23;;;;;;;26.75;100.00;101655.66;4989181;28;20468;-76
2023/09/16 10:25:13;;;;;;;24.98;23.17;;;;;;;27.52;100.00;101648.00;4988019;28;20058;-76
2023/09/16 10:27:57;;;;;;;23.63;22.00;;;;;;;27.15;100.00;101632.50;4981532;28;20448;-76
2023/09/16 10:30:25;;;;;;;23.08;21.45;;;;;;;27.90;100.00;101626.13;4985461;28;20306;-77
2023/09/16 10:32:53;;;;;;;20.75;19.08;;;;;;;28.37;100.00;101634.22;4978272;28;20089;-76
2023/09/16 10:35:20;;;;;;;24.45;22.17;;;;;;;28.99;100.00;101629.91;4981596;28;20078;-76
2023/09/16 10:37:52;;;;;;;24.23;22.42;;;;;;;28.80;100.00;101626.50;4983162;28;20042;-76
2023/09/16 10:40:19;;;;;;;24.60;22.80;;;;;;;29.21;100.00;101626.41;4979728;28;20047;-76
2023/09/16 10:42:51;;;;;;;21.63;19.95;;;;;;;29.39;100.00;101621.88;4986863;28;20061;-77
2023/09/16 10:45:18;;;;;;;36.00;24.80;;;;;;;28.54;100.00;101623.53;4984984;28;20434;-84
2023/09/16 10:47:46;;;;;;;22.67;20.98;;;;;;;29.64;100.00;101619.63;4979880;28;20050;-85
2023/09/16 10:50:13;;;;;;;22.95;21.25;;;;;;;30.00;100.00;101613.22;4985096;28;20050;-85
2023/09/16 10:52:42;;;;;;;25.17;23.42;;;;;;;29.18;100.00;101602.41;4977424;28;20046;-85
2023/09/16 10:55:15;;;;;;;23.60;21.75;;;;;;;30.45;100.00;101610.31;4982618;28;20082;-77
2023/09/16 10:57:53;;;;;;;22.75;21.02;;;;;;;29.66;100.00;101615.47;4983256;28;20475;-77
2023/09/16 11:00:22;;;;;;;25.33;23.63;;;;;;;30.39;100.00;101601.44;4978994;28;20063;-77
2023/09/16 11:02:57;;;;;;;26.92;25.13;;;;;;;29.82;100.00;101590.44;4972591;28;20047;-77
2023/09/16 11:05:25;;;;;;;33.20;23.80;;;;;;;30.59;100.00;101586.31;4978436;28;20413;-77
2023/09/16 11:07:52;;;;;;;24.90;22.92;;;;;;;30.41;100.00;101590.16;4978386;28;20101;-77
2023/09/16 11:10:20;;;;;;;21.98;20.38;;;;;;;30.60;100.00;101596.16;4980936;28;20440;-77